createdAt,value
2023-05-20T00:01:29.993Z,5.57
2023-05-20T00:03:58.078Z,4.60
2023-05-20T00:06:28.162Z,2.97
2023-05-20T00:08:55.962Z,5.80
2023-05-20T00:11:23.562Z,3.97
2023-05-20T00:14:06.338Z,4.57
2023-05-20T00:16:51.598Z,5.20
2023-05-20T00:19:40.861Z,2.87
2023-05-20T00:22:11.884Z,5.23
2023-05-20T00:24:39.476Z,4.67
2023-05-20T00:27:07.282Z,5.40
2023-05-20T00:29:35.309Z,6.03
2023-05-20T00:32:09.457Z,4.70
2023-05-20T00:34:36.944Z,3.27
2023-05-20T00:37:04.481Z,4.20
2023-05-20T00:39:32.261Z,4.53
2023-05-20T00:42:03.613Z,4.27
2023-05-20T00:44:31.221Z,2.90
2023-05-20T00:46:58.576Z,4.43
2023-05-20T00:49:26.129Z,3.57
2023-05-20T00:51:53.408Z,7.10
2023-05-20T00:54:22.271Z,5.07
2023-05-20T00:56:49.532Z,4.90
2023-05-20T00:59:17.291Z,7.30
2023-05-20T01:01:44.813Z,3.67
2023-05-20T01:04:12.209Z,3.50
2023-05-20T01:06:39.477Z,2.13
2023-05-20T01:09:06.875Z,5.20
2023-05-20T01:11:55.453Z,3.43
2023-05-20T01:14:25.895Z,5.00
2023-05-20T01:16:55.518Z,4.03
2023-05-20T01:19:45.073Z,3.73
2023-05-20T01:22:14.419Z,3.07
2023-05-20T01:24:45.277Z,4.03
2023-05-20T01:27:16.457Z,4.87
2023-05-20T01:29:44.294Z,3.67
2023-05-20T01:32:39.132Z,6.27
2023-05-20T01:35:08.180Z,3.23
2023-05-20T01:37:40.678Z,4.00
2023-05-20T01:40:12.079Z,3.57
2023-05-20T01:42:41.662Z,5.97
2023-05-20T01:45:09.751Z,5.47
2023-05-20T01:47:37.231Z,2.63
2023-05-20T01:50:08.513Z,5.50
2023-05-20T01:52:36.249Z,3.07
2023-05-20T01:55:04.009Z,4.33
2023-05-20T01:57:31.347Z,6.67
2023-05-20T02:00:02.187Z,3.70
2023-05-20T02:02:29.474Z,4.13
2023-05-20T02:04:59.752Z,7.33
2023-05-20T02:07:26.898Z,2.00
2023-05-20T02:09:59.345Z,3.20
2023-05-20T02:12:29.254Z,3.63
2023-05-20T02:15:02.520Z,5.40
2023-05-20T02:17:29.804Z,3.57
2023-05-20T02:19:57.031Z,6.63
2023-05-20T02:22:24.126Z,2.73
2023-05-20T02:24:51.226Z,4.73
2023-05-20T02:27:18.352Z,2.70
2023-05-20T02:29:45.654Z,3.27
2023-05-20T02:32:12.759Z,4.53
2023-05-20T02:34:39.849Z,3.67
2023-05-20T02:37:06.995Z,4.53
2023-05-20T02:39:34.057Z,3.77
2023-05-20T02:42:01.246Z,5.10
2023-05-20T02:44:30.532Z,6.13
2023-05-20T02:46:57.696Z,5.80
2023-05-20T02:49:24.833Z,5.17
2023-05-20T02:51:51.931Z,3.83
2023-05-20T02:54:19.353Z,5.57
2023-05-20T02:56:46.503Z,4.57
2023-05-20T02:59:13.732Z,3.23
2023-05-20T03:01:41.164Z,7.30
2023-05-20T03:04:08.890Z,4.77
2023-05-20T03:06:36.264Z,5.87
2023-05-20T03:09:03.477Z,3.20
2023-05-20T03:11:30.621Z,5.27
2023-05-20T03:13:57.780Z,9.67
2023-05-20T03:16:25.209Z,4.33
2023-05-20T03:18:54.571Z,4.40
2023-05-20T03:21:23.939Z,5.73
2023-05-20T03:23:53.586Z,4.53
2023-05-20T03:26:21.745Z,4.73
2023-05-20T03:28:49.232Z,3.03
2023-05-20T03:31:16.422Z,7.20
2023-05-20T03:33:45.442Z,3.73
2023-05-20T03:36:12.778Z,4.40
2023-05-20T03:38:39.901Z,4.23
2023-05-20T03:41:07.137Z,6.60
2023-05-20T03:43:34.237Z,3.80
2023-05-20T03:46:01.494Z,5.20
2023-05-20T03:48:28.705Z,7.33
2023-05-20T03:50:55.874Z,5.93
2023-05-20T03:53:23.132Z,8.67
2023-05-20T03:55:50.550Z,4.90
2023-05-20T03:58:20.523Z,3.83
2023-05-20T04:00:49.004Z,5.97
2023-05-20T04:03:16.385Z,3.60
2023-05-20T04:05:43.571Z,5.40
2023-05-20T04:08:16.496Z,5.03
2023-05-20T04:10:43.766Z,5.13
2023-05-20T04:13:11.781Z,4.47
2023-05-20T04:15:41.519Z,4.27
2023-05-20T04:18:08.766Z,4.53
2023-05-20T04:20:36.404Z,3.87
2023-05-20T04:23:04.744Z,6.90
2023-05-20T04:25:32.315Z,3.47
2023-05-20T04:28:01.878Z,6.33
2023-05-20T04:30:30.121Z,5.77
2023-05-20T04:33:03.487Z,5.50
2023-05-20T04:35:30.948Z,7.70
2023-05-20T04:37:58.263Z,6.63
2023-05-20T04:40:32.412Z,2.63
2023-05-20T04:43:04.194Z,5.30
2023-05-20T04:45:33.694Z,7.37
2023-05-20T04:48:01.215Z,7.30
2023-05-20T04:50:31.365Z,6.93
2023-05-20T04:52:59.010Z,6.77
2023-05-20T04:55:37.415Z,6.53
2023-05-20T04:58:04.679Z,4.93
2023-05-20T05:00:31.811Z,4.13
2023-05-20T05:03:01.268Z,4.10
2023-05-20T05:05:28.442Z,5.77
2023-05-20T05:07:56.096Z,5.37
2023-05-20T05:10:26.282Z,5.13
2023-05-20T05:12:53.470Z,5.13
2023-05-20T05:15:20.745Z,5.27
2023-05-20T05:17:47.995Z,4.97
2023-05-20T05:20:18.790Z,6.23
2023-05-20T05:22:50.620Z,5.70
2023-05-20T05:25:18.062Z,4.40
2023-05-20T05:27:45.612Z,6.00
2023-05-20T05:30:19.434Z,8.30
2023-05-20T05:32:47.175Z,6.83
2023-05-20T05:35:17.249Z,7.13
2023-05-20T05:37:50.528Z,15.07
2023-05-20T05:40:20.876Z,5.73
2023-05-20T05:42:48.326Z,5.70
2023-05-20T05:45:15.498Z,6.97
2023-05-20T05:47:46.122Z,3.67
2023-05-20T05:50:13.369Z,7.77
2023-05-20T05:52:41.223Z,5.77
2023-05-20T05:55:10.795Z,6.47
2023-05-20T05:57:38.071Z,7.40
2023-05-20T06:00:06.652Z,7.90
2023-05-20T06:02:36.925Z,5.77
2023-05-20T06:05:05.677Z,5.70
2023-05-20T06:07:32.871Z,4.47
2023-05-20T06:10:00.274Z,6.30
2023-05-20T06:12:27.691Z,5.53
2023-05-20T06:14:54.872Z,6.60
2023-05-20T06:17:22.086Z,7.17
2023-05-20T06:19:52.427Z,5.10
2023-05-20T06:22:22.654Z,7.83
2023-05-20T06:24:54.855Z,6.90
2023-05-20T06:27:25.584Z,6.57
2023-05-20T06:29:58.851Z,8.23
2023-05-20T06:32:38.046Z,4.87
2023-05-20T06:35:14.008Z,4.63
2023-05-20T06:40:47.774Z,4.93
2023-05-20T06:43:18.471Z,6.10
2023-05-20T06:45:54.457Z,7.37
2023-05-20T06:48:21.969Z,5.27
2023-05-20T06:50:49.609Z,9.03
2023-05-20T06:53:17.138Z,4.63
2023-05-20T06:55:44.371Z,5.10
2023-05-20T06:58:11.559Z,4.53
2023-05-20T07:00:39.326Z,9.53
2023-05-20T07:03:06.912Z,4.40
2023-05-20T07:05:34.297Z,8.87
2023-05-20T07:08:05.525Z,5.83
2023-05-20T07:10:33.223Z,6.13
2023-05-20T07:13:01.037Z,7.87
2023-05-20T07:16:07.016Z,10.87
2023-05-20T07:18:34.197Z,8.53
2023-05-20T07:21:04.836Z,6.83
2023-05-20T07:23:37.001Z,6.73
2023-05-20T07:26:07.477Z,5.03
2023-05-20T07:28:44.173Z,7.47
2023-05-20T07:31:11.690Z,6.17
2023-05-20T07:33:59.860Z,6.87
2023-05-20T07:36:28.763Z,7.20
2023-05-20T07:39:02.638Z,6.67
2023-05-20T07:41:42.298Z,6.73
2023-05-20T07:44:11.487Z,5.93
2023-05-20T07:46:39.652Z,7.63
2023-05-20T07:49:07.220Z,7.73
2023-05-20T07:51:34.526Z,5.60
2023-05-20T07:54:02.342Z,7.57
2023-05-20T07:56:29.735Z,9.80
2023-05-20T07:59:00.789Z,5.13
2023-05-20T08:01:28.420Z,6.40
2023-05-20T08:03:55.865Z,7.10
2023-05-20T08:06:28.698Z,6.53
2023-05-20T08:08:56.999Z,4.93
2023-05-20T08:11:24.342Z,7.03
2023-05-20T08:13:52.625Z,5.20
2023-05-20T08:16:24.758Z,5.20
2023-05-20T08:18:52.176Z,5.03
2023-05-20T08:21:19.562Z,7.17
2023-05-20T08:23:46.873Z,5.63
2023-05-20T08:26:14.255Z,6.03
2023-05-20T08:28:41.667Z,5.77
2023-05-20T08:31:11.661Z,7.00
2023-05-20T08:33:44.977Z,4.53
2023-05-20T08:36:16.242Z,4.27
2023-05-20T08:38:43.787Z,5.93
2023-05-20T08:41:10.963Z,3.87
2023-05-20T08:43:38.738Z,6.93
2023-05-20T08:46:07.004Z,8.60
2023-05-20T08:48:58.652Z,6.20
2023-05-20T08:51:33.694Z,5.40
2023-05-20T08:54:01.527Z,6.03
2023-05-20T08:56:30.984Z,5.33
2023-05-20T08:58:58.634Z,4.70
2023-05-20T09:01:26.822Z,6.10
2023-05-20T09:03:57.276Z,4.33
2023-05-20T09:06:27.169Z,5.03
2023-05-20T09:09:06.417Z,4.90
2023-05-20T09:12:05.023Z,6.47
2023-05-20T09:14:35.110Z,6.33
2023-05-20T09:17:08.325Z,7.10
2023-05-20T09:19:57.413Z,6.40
2023-05-20T09:22:29.328Z,7.80
2023-05-20T09:24:59.317Z,4.70
2023-05-20T09:27:26.571Z,6.03
2023-05-20T09:29:59.905Z,6.27
2023-05-20T09:32:29.605Z,6.40
2023-05-20T09:35:04.139Z,7.63
2023-05-20T09:37:34.904Z,8.60
2023-05-20T09:40:11.028Z,6.83
2023-05-20T09:43:19.613Z,9.07
2023-05-20T09:45:55.814Z,6.23
2023-05-20T09:48:29.547Z,7.43
2023-05-20T09:51:08.370Z,7.67
2023-05-20T09:53:48.999Z,8.37
2023-05-20T09:56:17.599Z,8.20
2023-05-20T09:58:51.864Z,6.17
2023-05-20T10:01:19.311Z,6.63
2023-05-20T10:03:53.855Z,8.57
2023-05-20T10:07:41.701Z,9.07
2023-05-20T10:10:48.420Z,7.43
2023-05-20T10:14:07.434Z,11.53
2023-05-20T10:17:55.361Z,7.63
2023-05-20T10:20:32.168Z,7.07
2023-05-20T10:23:04.874Z,8.33
2023-05-20T10:25:32.244Z,8.17
2023-05-20T10:28:13.985Z,5.70
2023-05-20T10:30:51.343Z,8.33
2023-05-20T10:33:19.937Z,9.73
2023-05-20T10:36:02.658Z,11.20
2023-05-20T10:38:52.088Z,6.13
2023-05-20T10:41:51.688Z,7.27
2023-05-20T10:44:25.228Z,8.47
2023-05-20T10:49:55.715Z,7.60
2023-05-20T10:52:24.295Z,8.80
2023-05-20T10:55:37.235Z,9.47
2023-05-20T10:58:11.656Z,11.13
2023-05-20T11:00:56.354Z,8.60
2023-05-20T11:03:27.140Z,9.37
2023-05-20T11:05:57.867Z,9.73
2023-05-20T11:09:13.877Z,8.10
2023-05-20T11:11:50.306Z,8.23
2023-05-20T11:17:19.090Z,9.03
2023-05-20T11:19:51.307Z,7.77
2023-05-20T11:22:34.880Z,8.07
2023-05-20T11:25:09.832Z,9.47
2023-05-20T11:27:56.855Z,8.70
2023-05-20T11:30:36.872Z,9.77
2023-05-20T11:33:05.462Z,10.87
2023-05-20T11:35:36.160Z,8.80
2023-05-20T11:38:10.241Z,9.73
2023-05-20T11:40:49.942Z,10.70
2023-05-20T11:43:34.213Z,7.63
2023-05-20T11:46:01.803Z,8.40
2023-05-20T11:48:29.542Z,9.30
2023-05-20T11:51:02.271Z,8.63
2023-05-20T11:53:30.244Z,7.33
2023-05-20T11:56:06.490Z,8.70
2023-05-20T11:58:40.175Z,8.60
2023-05-20T12:01:22.241Z,8.53
2023-05-20T12:03:53.408Z,7.50
2023-05-20T12:06:21.475Z,8.77
2023-05-20T12:08:52.055Z,9.35
2023-05-20T12:11:25.232Z,11.82
2023-05-20T12:13:53.032Z,11.67
2023-05-20T12:16:20.375Z,9.17
2023-05-20T12:18:48.083Z,8.70
2023-05-20T12:21:31.589Z,10.50
2023-05-20T12:24:07.135Z,8.47
2023-05-20T12:26:35.590Z,9.37
2023-05-20T12:29:03.096Z,9.97
2023-05-20T12:31:31.829Z,10.77
2023-05-20T12:34:01.336Z,9.73
2023-05-20T12:36:28.897Z,6.82
2023-05-20T12:38:59.144Z,8.82
2023-05-20T12:45:48.673Z,10.43
2023-05-20T12:48:21.489Z,7.20
2023-05-20T12:50:48.855Z,8.10
2023-05-20T12:53:16.089Z,9.02
2023-05-20T12:55:43.295Z,7.30
2023-05-20T12:58:10.786Z,8.02
2023-05-20T13:00:43.691Z,9.23
2023-05-20T13:03:11.437Z,8.68
2023-05-20T13:05:38.816Z,7.32
2023-05-20T13:08:06.484Z,7.45
2023-05-20T13:10:34.057Z,8.15
2023-05-20T13:13:01.406Z,6.05
2023-05-20T13:15:28.933Z,6.25
2023-05-20T13:18:01.596Z,7.00
2023-05-20T13:20:30.112Z,8.57
2023-05-20T13:23:02.899Z,6.70
2023-05-20T13:25:31.918Z,9.45
2023-05-20T13:27:59.487Z,8.70
2023-05-20T13:30:28.385Z,7.32
2023-05-20T13:33:01.166Z,5.72
2023-05-20T13:35:28.670Z,6.53
2023-05-20T13:37:55.960Z,5.28
2023-05-20T13:40:23.208Z,6.28
2023-05-20T13:42:56.499Z,7.03
2023-05-20T13:45:23.656Z,5.10
2023-05-20T13:47:51.434Z,7.20
2023-05-20T13:50:23.117Z,6.28
2023-05-20T13:52:50.231Z,6.22
2023-05-20T13:55:18.882Z,8.93
2023-05-20T13:57:46.191Z,6.28
2023-05-20T14:00:14.713Z,8.23
2023-05-20T14:02:41.920Z,6.28
2023-05-20T14:05:09.704Z,7.45
2023-05-20T14:07:37.390Z,6.47
2023-05-20T14:10:06.395Z,7.65
2023-05-20T14:12:33.783Z,6.43
2023-05-20T14:15:00.982Z,6.75
2023-05-20T14:17:28.239Z,6.78
2023-05-20T14:19:55.466Z,7.47
2023-05-20T14:22:22.635Z,7.47
2023-05-20T14:24:57.272Z,4.82
2023-05-20T14:27:27.657Z,4.95
2023-05-20T14:29:54.908Z,8.35
2023-05-20T14:32:22.046Z,6.68
2023-05-20T14:34:49.395Z,4.38
2023-05-20T14:37:16.860Z,5.35
2023-05-20T14:39:44.091Z,6.03
2023-05-20T14:42:12.462Z,7.70
2023-05-20T14:44:39.666Z,5.35
2023-05-20T14:47:06.966Z,5.03
2023-05-20T14:49:52.681Z,8.82
2023-05-20T14:52:23.283Z,4.47
2023-05-20T14:54:50.648Z,4.75
2023-05-20T14:57:20.759Z,6.00
2023-05-20T14:59:51.864Z,4.18
2023-05-20T15:02:19.939Z,5.35
2023-05-20T15:04:47.967Z,4.75
2023-05-20T15:07:16.616Z,7.90
2023-05-20T15:09:44.012Z,4.47
2023-05-20T15:12:14.429Z,5.18
2023-05-20T15:14:43.823Z,6.45
2023-05-20T15:17:11.751Z,5.72
2023-05-20T15:19:41.886Z,5.18
2023-05-20T15:22:12.212Z,7.90
2023-05-20T15:24:39.565Z,5.97
2023-05-20T15:27:06.950Z,5.30
2023-05-20T15:29:34.147Z,8.32
2023-05-20T15:32:01.480Z,5.78
2023-05-20T15:34:29.029Z,5.00
2023-05-20T15:37:06.872Z,4.45
2023-05-20T15:39:40.991Z,14.82
2023-05-20T15:42:13.598Z,56.88
2023-05-20T15:44:40.965Z,29.67
2023-05-20T15:47:10.907Z,7.68
2023-05-20T15:49:38.193Z,5.70
2023-05-20T15:52:05.976Z,7.60
2023-05-20T15:54:33.196Z,5.65
2023-05-20T15:57:02.791Z,5.43
2023-05-20T15:59:30.125Z,5.32
2023-05-20T16:01:57.377Z,6.35
2023-05-20T16:04:33.876Z,5.47
2023-05-20T16:07:01.470Z,5.13
2023-05-20T16:09:31.772Z,4.70
2023-05-20T16:12:05.386Z,5.63
2023-05-20T16:14:32.560Z,4.45
2023-05-20T16:17:03.751Z,5.13
2023-05-20T16:19:38.038Z,5.60
2023-05-20T16:22:14.644Z,4.10
2023-05-20T16:24:42.035Z,8.90
2023-05-20T16:27:12.058Z,4.03
2023-05-20T16:29:41.733Z,6.82
2023-05-20T16:32:08.970Z,4.68
2023-05-20T16:34:37.795Z,6.72
2023-05-20T16:37:08.239Z,3.80
2023-05-20T16:39:41.575Z,5.03
2023-05-20T16:42:09.278Z,6.32
2023-05-20T16:44:38.734Z,5.53
2023-05-20T16:47:08.110Z,5.53
2023-05-20T16:49:36.032Z,5.13
2023-05-20T16:52:07.893Z,4.50
2023-05-20T16:54:40.701Z,5.07
2023-05-20T16:57:12.383Z,4.50
2023-05-20T16:59:39.469Z,5.85
2023-05-20T17:02:12.100Z,4.85
2023-05-20T17:04:57.136Z,7.80
2023-05-20T17:07:24.324Z,8.70
2023-05-20T17:09:53.079Z,6.25
2023-05-20T17:12:20.746Z,5.03
2023-05-20T17:14:47.892Z,6.15
2023-05-20T17:17:22.727Z,4.47
2023-05-20T17:19:49.929Z,6.78
2023-05-20T17:22:17.088Z,6.03
2023-05-20T17:24:44.681Z,4.20
2023-05-20T17:27:14.621Z,5.32
2023-05-20T17:29:41.870Z,5.15
2023-05-20T17:32:09.327Z,4.30
2023-05-20T17:34:36.808Z,3.88
2023-05-20T17:37:10.725Z,5.10
2023-05-20T17:39:37.910Z,3.60
2023-05-20T17:42:08.493Z,5.13
2023-05-20T17:44:35.926Z,3.95
2023-05-20T17:47:03.161Z,7.70
2023-05-20T17:49:30.768Z,5.85
2023-05-20T17:55:11.392Z,4.20
2023-05-20T17:57:40.985Z,4.00
2023-05-20T18:00:25.901Z,4.00
2023-05-20T18:03:08.960Z,5.50
2023-05-20T18:06:14.870Z,4.03
2023-05-20T18:09:01.241Z,4.85
2023-05-20T18:11:57.887Z,5.93
2023-05-20T18:14:28.344Z,5.68
2023-05-20T18:17:39.528Z,4.95
2023-05-20T18:23:18.097Z,4.67
2023-05-20T18:25:48.748Z,6.00
2023-05-20T18:28:16.836Z,5.10
2023-05-20T18:30:44.258Z,5.88
2023-05-20T18:33:16.234Z,5.60
2023-05-20T18:35:43.825Z,7.97
2023-05-20T18:38:24.949Z,4.03
2023-05-20T18:40:55.171Z,6.47
2023-05-20T18:46:36.227Z,4.17
2023-05-20T18:49:03.498Z,5.75
2023-05-20T18:51:34.955Z,4.57
2023-05-20T18:54:05.061Z,5.68
2023-05-20T18:56:32.513Z,6.50
2023-05-20T18:59:14.973Z,7.82
2023-05-20T19:01:51.031Z,8.17
2023-05-20T19:04:27.909Z,9.45
2023-05-20T19:07:04.883Z,6.90
2023-05-20T19:09:43.212Z,10.30
2023-05-20T19:12:24.792Z,5.63
2023-05-20T19:14:58.030Z,5.00
2023-05-20T19:17:28.518Z,6.10
2023-05-20T19:20:07.250Z,4.73
2023-05-20T19:22:40.864Z,4.87
2023-05-20T19:25:14.297Z,5.53
2023-05-20T19:28:00.067Z,5.50
2023-05-20T19:30:27.321Z,4.83
2023-05-20T19:32:54.809Z,6.53
2023-05-20T19:35:33.408Z,7.50
2023-05-20T19:38:01.927Z,7.23
2023-05-20T19:40:38.516Z,4.73
2023-05-20T19:43:08.852Z,8.40
2023-05-20T19:45:44.644Z,4.50
2023-05-20T19:48:12.241Z,6.50
2023-05-20T19:50:50.138Z,5.70
2023-05-20T19:53:17.983Z,5.00
2023-05-20T19:55:48.336Z,6.33
2023-05-20T19:58:25.872Z,6.70
2023-05-20T20:00:59.066Z,10.00
2023-05-20T20:03:29.749Z,7.50
2023-05-20T20:05:57.215Z,7.33
2023-05-20T20:08:27.544Z,4.73
2023-05-20T20:10:58.252Z,7.33
2023-05-20T20:13:25.797Z,6.07
2023-05-20T20:15:59.125Z,8.70
2023-05-20T20:18:39.090Z,8.50
2023-05-20T20:21:11.045Z,7.27
2023-05-20T20:23:46.927Z,7.00
2023-05-20T20:26:21.621Z,9.60
2023-05-20T20:28:52.130Z,7.37
2023-05-20T20:31:27.484Z,8.67
2023-05-20T20:34:12.147Z,8.90
2023-05-20T20:36:39.815Z,8.37
2023-05-20T20:39:07.032Z,7.20
2023-05-20T20:41:35.148Z,8.47
2023-05-20T20:44:03.404Z,7.73
2023-05-20T20:46:31.045Z,7.10
2023-05-20T20:49:01.712Z,7.27
2023-05-20T20:51:29.275Z,7.80
2023-05-20T20:53:57.463Z,9.33
2023-05-20T20:56:25.931Z,10.17
2023-05-20T20:58:54.141Z,11.53
2023-05-20T21:01:21.393Z,10.13
2023-05-20T21:04:01.391Z,6.93
2023-05-20T21:06:28.899Z,7.73
2023-05-20T21:09:02.286Z,7.87
2023-05-20T21:11:37.089Z,13.37
2023-05-20T21:14:05.156Z,8.47
2023-05-20T21:16:42.308Z,11.07
2023-05-20T21:19:13.182Z,8.10
2023-05-20T21:21:40.803Z,13.77
2023-05-20T21:24:13.930Z,10.50
2023-05-20T21:26:46.638Z,9.60
2023-05-20T21:29:13.965Z,12.30
2023-05-20T21:31:44.116Z,8.10
2023-05-20T21:34:11.476Z,8.57
2023-05-20T21:36:48.118Z,11.70
2023-05-20T21:39:26.195Z,8.23
2023-05-20T21:41:58.990Z,13.87
2023-05-20T21:44:31.763Z,9.20
2023-05-20T21:47:21.122Z,10.10
2023-05-20T21:49:54.633Z,10.13
2023-05-20T21:52:22.046Z,10.53
2023-05-20T21:54:49.604Z,9.23
2023-05-20T21:57:19.357Z,11.30
2023-05-20T21:59:46.900Z,11.97
2023-05-20T22:02:14.257Z,10.33
2023-05-20T22:04:49.155Z,12.07
2023-05-20T22:07:17.642Z,16.03
2023-05-20T22:09:45.257Z,11.43
2023-05-20T22:12:15.349Z,12.63
2023-05-20T22:14:42.925Z,16.23
2023-05-20T22:17:10.679Z,11.67
2023-05-20T22:19:41.559Z,12.23
2023-05-20T22:22:09.996Z,13.80
2023-05-20T22:24:40.070Z,13.80
2023-05-20T22:27:11.702Z,12.40
2023-05-20T22:29:39.165Z,9.97
2023-05-20T22:32:28.674Z,19.03
2023-05-20T22:34:59.366Z,16.87
2023-05-20T22:37:35.033Z,13.60
2023-05-20T22:40:05.249Z,16.00
2023-05-20T22:42:32.812Z,14.77
2023-05-20T22:45:00.057Z,15.17
2023-05-20T22:47:33.251Z,16.70
2023-05-20T22:50:02.489Z,15.67
2023-05-20T22:52:30.169Z,13.07
2023-05-20T22:55:03.967Z,14.83
2023-05-20T22:57:31.837Z,11.83
2023-05-20T23:00:06.881Z,13.40
2023-05-20T23:02:35.509Z,16.07
2023-05-20T23:05:08.589Z,16.23
2023-05-20T23:07:42.829Z,18.67
2023-05-20T23:10:13.836Z,18.03
2023-05-20T23:12:41.195Z,19.27
2023-05-20T23:15:10.264Z,14.97
2023-05-20T23:17:42.498Z,17.80
2023-05-20T23:20:11.204Z,12.87
2023-05-20T23:22:46.107Z,13.37
2023-05-20T23:25:13.313Z,13.23
2023-05-20T23:28:01.597Z,14.97
2023-05-20T23:30:28.961Z,17.63
2023-05-20T23:33:00.126Z,13.93
2023-05-20T23:35:30.648Z,17.33
2023-05-20T23:38:02.736Z,14.80
2023-05-20T23:40:41.079Z,15.20
2023-05-20T23:43:08.696Z,18.83
2023-05-20T23:45:36.483Z,13.03
2023-05-20T23:48:13.850Z,18.60
2023-05-20T23:50:46.364Z,14.03
2023-05-20T23:53:13.675Z,17.40
2023-05-20T23:55:53.622Z,17.33
2023-05-20T23:58:21.774Z,15.20
